sensor_id;sensor_type;location;lat;lon;timestamp;pressure;altitude;pressure_sealevel;temperature;humidity
70256;BME280;57669;52.624;-1.688;2023-01-29T00:00:16;102437.69;;;5.28;53.93
70256;BME280;57669;52.624;-1.688;2023-01-29T00:02:41;102437.03;;;5.07;54.65
70256;BME280;57669;52.624;-1.688;2023-01-29T00:05:07;102441.60;;;5.77;53.47
70256;BME280;57669;52.624;-1.688;2023-01-29T00:07:47;102437.15;;;5.64;53.64
70256;BME280;57669;52.624;-1.688;2023-01-29T00:09:58;102435.14;;;5.27;54.40
70256;BME280;57669;52.624;-1.688;2023-01-29T00:12:23;102437.77;;;4.89;55.04
70256;BME280;57669;52.624;-1.688;2023-01-29T00:14:48;102435.39;;;5.31;54.52
70256;BME280;57669;52.624;-1.688;2023-01-29T00:17:14;102434.26;;;5.39;54.27
70256;BME280;57669;52.624;-1.688;2023-01-29T00:19:40;102442.13;;;5.74;53.47
70256;BME280;57669;52.624;-1.688;2023-01-29T00:22:15;102440.42;;;5.41;53.53
70256;BME280;57669;52.624;-1.688;2023-01-29T00:24:31;102437.60;;;5.13;55.40
70256;BME280;57669;52.624;-1.688;2023-01-29T00:26:57;102432.99;;;5.06;54.82
70256;BME280;57669;52.624;-1.688;2023-01-29T00:29:22;102433.66;;;4.79;55.30
70256;BME280;57669;52.624;-1.688;2023-01-29T00:31:47;102434.74;;;5.66;54.66
70256;BME280;57669;52.624;-1.688;2023-01-29T00:34:12;102438.00;;;5.58;53.82
70256;BME280;57669;52.624;-1.688;2023-01-29T00:36:38;102438.43;;;5.33;54.61
70256;BME280;57669;52.624;-1.688;2023-01-29T00:39:04;102436.46;;;4.50;55.70
70256;BME280;57669;52.624;-1.688;2023-01-29T00:41:31;102437.12;;;4.88;54.97
70256;BME280;57669;52.624;-1.688;2023-01-29T00:43:55;102436.93;;;4.62;56.32
70256;BME280;57669;52.624;-1.688;2023-01-29T00:46:19;102438.93;;;5.09;55.54
70256;BME280;57669;52.624;-1.688;2023-01-29T00:48:45;102436.00;;;4.95;55.62
70256;BME280;57669;52.624;-1.688;2023-01-29T00:51:11;102433.89;;;4.66;55.78
70256;BME280;57669;52.624;-1.688;2023-01-29T00:53:36;102432.65;;;5.11;55.24
70256;BME280;57669;52.624;-1.688;2023-01-29T00:56:01;102429.03;;;5.19;55.08
70256;BME280;57669;52.624;-1.688;2023-01-29T00:58:27;102427.81;;;4.21;57.16
70256;BME280;57669;52.624;-1.688;2023-01-29T01:00:52;102430.44;;;4.62;55.35
70256;BME280;57669;52.624;-1.688;2023-01-29T01:03:18;102424.07;;;4.11;56.16
70256;BME280;57669;52.624;-1.688;2023-01-29T01:05:43;102421.45;;;3.99;58.09
70256;BME280;57669;52.624;-1.688;2023-01-29T01:08:09;102418.03;;;4.61;57.24
70256;BME280;57669;52.624;-1.688;2023-01-29T01:10:35;102408.93;;;4.26;59.30
70256;BME280;57669;52.624;-1.688;2023-01-29T01:13:03;102402.95;;;3.62;61.27
70256;BME280;57669;52.624;-1.688;2023-01-29T01:15:29;102393.41;;;3.75;60.51
70256;BME280;57669;52.624;-1.688;2023-01-29T01:17:53;102384.98;;;3.87;59.69
70256;BME280;57669;52.624;-1.688;2023-01-29T01:20:17;102388.50;;;4.29;59.06
70256;BME280;57669;52.624;-1.688;2023-01-29T01:22:41;102385.16;;;4.10;59.90
70256;BME280;57669;52.624;-1.688;2023-01-29T01:25:08;102386.38;;;4.62;58.01
70256;BME280;57669;52.624;-1.688;2023-01-29T01:27:32;102389.62;;;4.73;57.54
70256;BME280;57669;52.624;-1.688;2023-01-29T01:29:57;102390.80;;;4.47;57.17
70256;BME280;57669;52.624;-1.688;2023-01-29T01:32:23;102386.79;;;4.33;57.52
70256;BME280;57669;52.624;-1.688;2023-01-29T01:34:50;102381.93;;;4.87;56.73
70256;BME280;57669;52.624;-1.688;2023-01-29T01:37:14;102380.44;;;4.51;58.24
70256;BME280;57669;52.624;-1.688;2023-01-29T01:39:39;102378.63;;;4.18;59.01
70256;BME280;57669;52.624;-1.688;2023-01-29T01:42:11;102380.85;;;4.72;58.68
70256;BME280;57669;52.624;-1.688;2023-01-29T01:47:00;102375.82;;;4.59;58.69
70256;BME280;57669;52.624;-1.688;2023-01-29T01:49:22;102369.77;;;4.45;60.23
70256;BME280;57669;52.624;-1.688;2023-01-29T01:51:50;102369.63;;;4.51;60.11
70256;BME280;57669;52.624;-1.688;2023-01-29T01:54:17;102369.69;;;3.46;62.31
70256;BME280;57669;52.624;-1.688;2023-01-29T01:56:42;102362.67;;;3.60;62.35
70256;BME280;57669;52.624;-1.688;2023-01-29T01:59:05;102357.72;;;4.07;60.59
70256;BME280;57669;52.624;-1.688;2023-01-29T02:01:29;102353.80;;;4.15;60.54
70256;BME280;57669;52.624;-1.688;2023-01-29T02:03:59;102351.02;;;4.39;59.29
70256;BME280;57669;52.624;-1.688;2023-01-29T02:06:21;102348.61;;;3.92;60.79
70256;BME280;57669;52.624;-1.688;2023-01-29T02:08:53;102343.62;;;4.21;60.51
70256;BME280;57669;52.624;-1.688;2023-01-29T02:11:12;102344.42;;;4.36;59.91
70256;BME280;57669;52.624;-1.688;2023-01-29T02:13:37;102342.02;;;3.78;61.84
70256;BME280;57669;52.624;-1.688;2023-01-29T02:16:03;102341.55;;;4.55;60.44
70256;BME280;57669;52.624;-1.688;2023-01-29T02:18:27;102341.28;;;4.05;61.58
70256;BME280;57669;52.624;-1.688;2023-01-29T02:21:04;102336.73;;;3.90;61.20
70256;BME280;57669;52.624;-1.688;2023-01-29T02:28:15;102321.73;;;4.00;61.33
70256;BME280;57669;52.624;-1.688;2023-01-29T02:30:39;102320.31;;;3.60;62.70
70256;BME280;57669;52.624;-1.688;2023-01-29T02:33:05;102317.44;;;3.02;63.75
70256;BME280;57669;52.624;-1.688;2023-01-29T02:35:29;102303.08;;;3.25;63.45
70256;BME280;57669;52.624;-1.688;2023-01-29T02:37:56;102298.91;;;3.66;61.33
70256;BME280;57669;52.624;-1.688;2023-01-29T02:40:23;102304.90;;;4.41;59.68
70256;BME280;57669;52.624;-1.688;2023-01-29T02:42:47;102301.80;;;4.02;60.36
70256;BME280;57669;52.624;-1.688;2023-01-29T02:45:12;102300.59;;;3.90;61.14
70256;BME280;57669;52.624;-1.688;2023-01-29T02:47:35;102292.15;;;3.51;61.47
70256;BME280;57669;52.624;-1.688;2023-01-29T02:50:03;102285.50;;;3.96;61.27
70256;BME280;57669;52.624;-1.688;2023-01-29T02:52:27;102274.44;;;4.02;61.36
70256;BME280;57669;52.624;-1.688;2023-01-29T02:54:53;102274.06;;;3.26;62.98
70256;BME280;57669;52.624;-1.688;2023-01-29T02:57:18;102282.23;;;3.19;63.49
70256;BME280;57669;52.624;-1.688;2023-01-29T02:59:44;102272.46;;;3.36;62.93
70256;BME280;57669;52.624;-1.688;2023-01-29T03:02:09;102276.91;;;3.35;62.90
70256;BME280;57669;52.624;-1.688;2023-01-29T03:04:35;102273.48;;;2.72;64.13
70256;BME280;57669;52.624;-1.688;2023-01-29T03:06:59;102262.17;;;3.42;63.52
70256;BME280;57669;52.624;-1.688;2023-01-29T03:09:25;102259.08;;;3.00;63.33
70256;BME280;57669;52.624;-1.688;2023-01-29T03:11:51;102256.52;;;3.20;63.25
70256;BME280;57669;52.624;-1.688;2023-01-29T03:14:15;102271.25;;;3.02;63.80
70256;BME280;57669;52.624;-1.688;2023-01-29T03:16:41;102269.58;;;3.15;63.18
70256;BME280;57669;52.624;-1.688;2023-01-29T03:19:06;102278.70;;;3.90;61.20
70256;BME280;57669;52.624;-1.688;2023-01-29T03:21:32;102267.02;;;3.48;62.07
70256;BME280;57669;52.624;-1.688;2023-01-29T03:23:55;102274.59;;;4.14;60.51
70256;BME280;57669;52.624;-1.688;2023-01-29T03:26:21;102266.89;;;3.95;60.90
70256;BME280;57669;52.624;-1.688;2023-01-29T03:28:46;102271.25;;;3.33;62.24
70256;BME280;57669;52.624;-1.688;2023-01-29T03:31:11;102274.88;;;4.23;60.26
70256;BME280;57669;52.624;-1.688;2023-01-29T03:33:41;102272.01;;;3.21;62.69
70256;BME280;57669;52.624;-1.688;2023-01-29T03:36:05;102268.32;;;3.74;61.51
70256;BME280;57669;52.624;-1.688;2023-01-29T03:38:25;102261.89;;;3.41;61.55
70256;BME280;57669;52.624;-1.688;2023-01-29T03:40:53;102266.28;;;4.05;60.85
70256;BME280;57669;52.624;-1.688;2023-01-29T03:43:22;102258.58;;;4.30;60.62
70256;BME280;57669;52.624;-1.688;2023-01-29T03:45:48;102255.94;;;4.02;60.79
70256;BME280;57669;52.624;-1.688;2023-01-29T03:48:10;102243.38;;;3.23;61.85
70256;BME280;57669;52.624;-1.688;2023-01-29T03:50:36;102246.13;;;4.45;59.33
70256;BME280;57669;52.624;-1.688;2023-01-29T03:53:01;102247.42;;;4.16;59.96
70256;BME280;57669;52.624;-1.688;2023-01-29T03:55:26;102248.01;;;4.47;58.86
70256;BME280;57669;52.624;-1.688;2023-01-29T03:57:53;102243.89;;;4.58;58.89
70256;BME280;57669;52.624;-1.688;2023-01-29T04:00:16;102236.44;;;4.75;58.05
70256;BME280;57669;52.624;-1.688;2023-01-29T04:02:42;102227.94;;;3.89;60.80
70256;BME280;57669;52.624;-1.688;2023-01-29T04:05:07;102226.94;;;4.11;60.28
70256;BME280;57669;52.624;-1.688;2023-01-29T04:07:29;102227.46;;;4.15;60.25
70256;BME280;57669;52.624;-1.688;2023-01-29T04:09:57;102235.21;;;4.57;59.37
70256;BME280;57669;52.624;-1.688;2023-01-29T04:12:23;102234.56;;;4.72;58.48
70256;BME280;57669;52.624;-1.688;2023-01-29T04:14:46;102236.85;;;4.19;59.68
70256;BME280;57669;52.624;-1.688;2023-01-29T04:17:13;102237.98;;;4.39;59.80
70256;BME280;57669;52.624;-1.688;2023-01-29T04:19:35;102239.33;;;4.72;59.31
70256;BME280;57669;52.624;-1.688;2023-01-29T04:22:06;102230.02;;;5.02;58.60
70256;BME280;57669;52.624;-1.688;2023-01-29T04:24:26;102232.46;;;4.29;59.63
70256;BME280;57669;52.624;-1.688;2023-01-29T04:26:59;102226.28;;;4.30;59.82
70256;BME280;57669;52.624;-1.688;2023-01-29T04:29:30;102224.04;;;4.27;59.86
70256;BME280;57669;52.624;-1.688;2023-01-29T04:31:48;102218.11;;;4.45;60.13
70256;BME280;57669;52.624;-1.688;2023-01-29T04:34:15;102208.32;;;4.12;60.90
70256;BME280;57669;52.624;-1.688;2023-01-29T04:36:38;102206.64;;;4.50;60.27
70256;BME280;57669;52.624;-1.688;2023-01-29T04:39:07;102203.13;;;4.84;59.45
70256;BME280;57669;52.624;-1.688;2023-01-29T04:41:30;102201.80;;;4.55;60.03
70256;BME280;57669;52.624;-1.688;2023-01-29T04:43:58;102195.67;;;4.58;60.05
70256;BME280;57669;52.624;-1.688;2023-01-29T04:46:18;102203.32;;;4.62;60.39
70256;BME280;57669;52.624;-1.688;2023-01-29T04:48:52;102193.01;;;4.44;59.00
70256;BME280;57669;52.624;-1.688;2023-01-29T04:51:12;102191.54;;;4.30;60.53
70256;BME280;57669;52.624;-1.688;2023-01-29T04:53:36;102192.03;;;3.95;61.08
70256;BME280;57669;52.624;-1.688;2023-01-29T04:56:02;102186.57;;;3.86;61.53
70256;BME280;57669;52.624;-1.688;2023-01-29T04:58:28;102180.85;;;4.27;60.75
70256;BME280;57669;52.624;-1.688;2023-01-29T05:00:52;102169.99;;;3.95;61.22
70256;BME280;57669;52.624;-1.688;2023-01-29T05:03:15;102169.85;;;4.22;59.77
70256;BME280;57669;52.624;-1.688;2023-01-29T05:05:41;102168.20;;;4.44;60.08
70256;BME280;57669;52.624;-1.688;2023-01-29T05:08:06;102170.64;;;5.03;58.17
70256;BME280;57669;52.624;-1.688;2023-01-29T05:10:32;102165.33;;;4.98;59.60
70256;BME280;57669;52.624;-1.688;2023-01-29T05:13:00;102169.08;;;4.00;60.76
70256;BME280;57669;52.624;-1.688;2023-01-29T05:15:28;102156.72;;;4.10;60.58
70256;BME280;57669;52.624;-1.688;2023-01-29T05:17:48;102164.61;;;5.02;59.23
70256;BME280;57669;52.624;-1.688;2023-01-29T05:20:14;102159.99;;;4.60;59.96
70256;BME280;57669;52.624;-1.688;2023-01-29T05:22:41;102158.75;;;4.30;61.43
70256;BME280;57669;52.624;-1.688;2023-01-29T05:25:18;102154.33;;;4.12;60.96
70256;BME280;57669;52.624;-1.688;2023-01-29T05:27:33;102155.98;;;3.93;61.59
70256;BME280;57669;52.624;-1.688;2023-01-29T05:29:56;102149.03;;;3.97;61.03
70256;BME280;57669;52.624;-1.688;2023-01-29T05:32:22;102138.96;;;4.23;61.59
70256;BME280;57669;52.624;-1.688;2023-01-29T05:34:47;102136.41;;;4.45;60.75
70256;BME280;57669;52.624;-1.688;2023-01-29T05:37:12;102131.47;;;4.35;61.34
70256;BME280;57669;52.624;-1.688;2023-01-29T05:39:37;102125.47;;;3.87;62.14
70256;BME280;57669;52.624;-1.688;2023-01-29T05:42:03;102118.94;;;3.87;62.18
70256;BME280;57669;52.624;-1.688;2023-01-29T05:44:42;102117.62;;;2.85;63.55
70256;BME280;57669;52.624;-1.688;2023-01-29T05:46:53;102114.70;;;3.27;63.12
70256;BME280;57669;52.624;-1.688;2023-01-29T05:49:18;102110.78;;;3.87;62.46
70256;BME280;57669;52.624;-1.688;2023-01-29T05:51:44;102113.30;;;3.79;62.11
70256;BME280;57669;52.624;-1.688;2023-01-29T05:54:10;102109.58;;;3.85;61.66
70256;BME280;57669;52.624;-1.688;2023-01-29T05:56:35;102108.46;;;4.30;60.43
70256;BME280;57669;52.624;-1.688;2023-01-29T05:59:00;102104.28;;;4.24;60.59
70256;BME280;57669;52.624;-1.688;2023-01-29T06:01:26;102108.20;;;4.13;60.98
70256;BME280;57669;52.624;-1.688;2023-01-29T06:03:51;102095.13;;;4.98;58.09
70256;BME280;57669;52.624;-1.688;2023-01-29T06:06:17;102102.19;;;3.77;61.11
70256;BME280;57669;52.624;-1.688;2023-01-29T06:08:42;102101.13;;;4.52;59.85
70256;BME280;57669;52.624;-1.688;2023-01-29T06:11:09;102101.10;;;3.85;60.72
70256;BME280;57669;52.624;-1.688;2023-01-29T06:13:33;102096.29;;;4.47;59.89
70256;BME280;57669;52.624;-1.688;2023-01-29T06:15:58;102095.02;;;4.02;61.29
70256;BME280;57669;52.624;-1.688;2023-01-29T06:18:23;102088.36;;;4.03;61.07
70256;BME280;57669;52.624;-1.688;2023-01-29T06:20:49;102084.96;;;4.59;59.50
70256;BME280;57669;52.624;-1.688;2023-01-29T06:23:14;102090.36;;;4.36;60.20
70256;BME280;57669;52.624;-1.688;2023-01-29T06:25:40;102083.91;;;4.09;60.70
70256;BME280;57669;52.624;-1.688;2023-01-29T06:30:31;102082.44;;;4.10;61.03
70256;BME280;57669;52.624;-1.688;2023-01-29T06:32:57;102082.30;;;4.25;60.79
70256;BME280;57669;52.624;-1.688;2023-01-29T06:35:22;102081.01;;;4.00;61.27
70256;BME280;57669;52.624;-1.688;2023-01-29T06:37:47;102083.10;;;4.26;60.69
70256;BME280;57669;52.624;-1.688;2023-01-29T06:40:13;102078.93;;;3.59;61.42
70256;BME280;57669;52.624;-1.688;2023-01-29T06:42:38;102083.29;;;3.71;62.76
70256;BME280;57669;52.624;-1.688;2023-01-29T06:45:04;102078.20;;;4.39;60.94
70256;BME280;57669;52.624;-1.688;2023-01-29T06:47:29;102072.99;;;4.02;62.50
70256;BME280;57669;52.624;-1.688;2023-01-29T06:49:55;102078.08;;;3.69;63.34
70256;BME280;57669;52.624;-1.688;2023-01-29T06:52:20;102081.73;;;3.21;64.78
70256;BME280;57669;52.624;-1.688;2023-01-29T06:54:45;102080.78;;;3.78;63.15
70256;BME280;57669;52.624;-1.688;2023-01-29T06:57:10;102075.74;;;3.92;62.30
70256;BME280;57669;52.624;-1.688;2023-01-29T06:59:36;102078.15;;;3.64;63.93
70256;BME280;57669;52.624;-1.688;2023-01-29T07:02:02;102070.22;;;4.51;61.08
70256;BME280;57669;52.624;-1.688;2023-01-29T07:04:26;102067.08;;;4.42;60.99
70256;BME280;57669;52.624;-1.688;2023-01-29T07:06:52;102069.26;;;4.05;61.91
70256;BME280;57669;52.624;-1.688;2023-01-29T07:09:17;102071.21;;;4.64;60.65
70256;BME280;57669;52.624;-1.688;2023-01-29T07:11:43;102069.24;;;3.74;62.71
70256;BME280;57669;52.624;-1.688;2023-01-29T07:14:08;102068.49;;;4.17;63.21
70256;BME280;57669;52.624;-1.688;2023-01-29T07:16:33;102074.83;;;3.39;64.13
70256;BME280;57669;52.624;-1.688;2023-01-29T07:18:58;102070.05;;;3.83;63.39
70256;BME280;57669;52.624;-1.688;2023-01-29T07:21:24;102068.06;;;4.17;62.77
70256;BME280;57669;52.624;-1.688;2023-01-29T07:23:50;102067.90;;;4.39;62.87
70256;BME280;57669;52.624;-1.688;2023-01-29T07:26:15;102058.87;;;4.36;62.06
70256;BME280;57669;52.624;-1.688;2023-01-29T07:28:40;102055.66;;;3.85;63.76
70256;BME280;57669;52.624;-1.688;2023-01-29T07:31:06;102057.77;;;4.11;62.83
70256;BME280;57669;52.624;-1.688;2023-01-29T07:33:32;102053.53;;;4.43;62.20
70256;BME280;57669;52.624;-1.688;2023-01-29T07:35:57;102056.94;;;4.42;62.97
70256;BME280;57669;52.624;-1.688;2023-01-29T07:38:23;102055.25;;;3.98;63.69
70256;BME280;57669;52.624;-1.688;2023-01-29T07:40:50;102064.83;;;3.53;65.18
70256;BME280;57669;52.624;-1.688;2023-01-29T07:43:13;102060.29;;;3.48;65.19
70256;BME280;57669;52.624;-1.688;2023-01-29T07:45:39;102058.37;;;3.88;63.62
70256;BME280;57669;52.624;-1.688;2023-01-29T07:48:04;102063.64;;;3.58;65.26
70256;BME280;57669;52.624;-1.688;2023-01-29T07:50:29;102058.95;;;4.21;63.49
70256;BME280;57669;52.624;-1.688;2023-01-29T07:52:54;102059.93;;;4.14;62.88
70256;BME280;57669;52.624;-1.688;2023-01-29T07:55:20;102063.87;;;4.26;61.97
70256;BME280;57669;52.624;-1.688;2023-01-29T07:57:45;102069.43;;;3.94;62.73
70256;BME280;57669;52.624;-1.688;2023-01-29T08:00:12;102070.88;;;4.21;62.40
70256;BME280;57669;52.624;-1.688;2023-01-29T08:02:36;102077.04;;;3.52;64.36
70256;BME280;57669;52.624;-1.688;2023-01-29T08:05:01;102074.89;;;3.61;64.23
70256;BME280;57669;52.624;-1.688;2023-01-29T08:07:27;102071.69;;;3.78;63.82
70256;BME280;57669;52.624;-1.688;2023-01-29T08:09:52;102076.41;;;3.84;63.91
70256;BME280;57669;52.624;-1.688;2023-01-29T08:12:17;102074.57;;;4.03;62.53
70256;BME280;57669;52.624;-1.688;2023-01-29T08:14:42;102072.94;;;4.00;62.44
70256;BME280;57669;52.624;-1.688;2023-01-29T08:17:07;102075.14;;;4.45;61.54
70256;BME280;57669;52.624;-1.688;2023-01-29T08:19:33;102074.00;;;4.15;63.11
70256;BME280;57669;52.624;-1.688;2023-01-29T08:21:58;102069.54;;;4.29;62.62
70256;BME280;57669;52.624;-1.688;2023-01-29T08:24:24;102074.80;;;4.08;62.41
70256;BME280;57669;52.624;-1.688;2023-01-29T08:26:49;102069.79;;;4.71;60.02
70256;BME280;57669;52.624;-1.688;2023-01-29T08:29:15;102072.99;;;5.56;57.50
70256;BME280;57669;52.624;-1.688;2023-01-29T08:31:41;102076.32;;;5.50;57.41
70256;BME280;57669;52.624;-1.688;2023-01-29T08:34:06;102077.59;;;5.66;56.64
70256;BME280;57669;52.624;-1.688;2023-01-29T08:36:31;102079.05;;;5.73;56.48
70256;BME280;57669;52.624;-1.688;2023-01-29T08:38:57;102078.22;;;6.18;55.58
70256;BME280;57669;52.624;-1.688;2023-01-29T08:41:22;102076.24;;;6.25;54.89
70256;BME280;57669;52.624;-1.688;2023-01-29T08:43:47;102077.73;;;6.00;55.75
70256;BME280;57669;52.624;-1.688;2023-01-29T08:46:13;102080.88;;;5.56;56.36
70256;BME280;57669;52.624;-1.688;2023-01-29T08:48:39;102079.38;;;6.44;54.66
70256;BME280;57669;52.624;-1.688;2023-01-29T08:51:06;102090.07;;;5.50;56.91
70256;BME280;57669;52.624;-1.688;2023-01-29T08:53:30;102086.02;;;5.38;57.57
70256;BME280;57669;52.624;-1.688;2023-01-29T08:55:56;102082.47;;;4.58;60.54
70256;BME280;57669;52.624;-1.688;2023-01-29T08:58:21;102083.22;;;4.15;64.60
70256;BME280;57669;52.624;-1.688;2023-01-29T09:00:48;102088.46;;;3.48;66.93
70256;BME280;57669;52.624;-1.688;2023-01-29T09:03:13;102087.72;;;3.57;66.39
70256;BME280;57669;52.624;-1.688;2023-01-29T09:05:39;102090.49;;;4.03;66.07
70256;BME280;57669;52.624;-1.688;2023-01-29T09:08:05;102093.98;;;3.37;67.69
70256;BME280;57669;52.624;-1.688;2023-01-29T09:10:30;102093.65;;;3.37;67.77
70256;BME280;57669;52.624;-1.688;2023-01-29T09:12:56;102090.46;;;3.45;67.25
70256;BME280;57669;52.624;-1.688;2023-01-29T09:15:21;102092.84;;;4.00;66.13
70256;BME280;57669;52.624;-1.688;2023-01-29T09:17:47;102094.32;;;3.76;66.95
70256;BME280;57669;52.624;-1.688;2023-01-29T09:20:12;102089.42;;;3.92;65.85
70256;BME280;57669;52.624;-1.688;2023-01-29T09:22:38;102085.78;;;4.00;65.60
70256;BME280;57669;52.624;-1.688;2023-01-29T09:25:04;102079.73;;;4.28;63.72
70256;BME280;57669;52.624;-1.688;2023-01-29T09:27:29;102077.85;;;4.04;63.92
70256;BME280;57669;52.624;-1.688;2023-01-29T09:29:54;102070.11;;;4.26;64.58
70256;BME280;57669;52.624;-1.688;2023-01-29T09:32:20;102061.38;;;4.13;64.82
70256;BME280;57669;52.624;-1.688;2023-01-29T09:34:46;102067.53;;;3.09;66.56
70256;BME280;57669;52.624;-1.688;2023-01-29T09:37:11;102063.56;;;3.83;64.69
70256;BME280;57669;52.624;-1.688;2023-01-29T09:39:37;102064.47;;;4.16;63.52
70256;BME280;57669;52.624;-1.688;2023-01-29T09:42:06;102060.56;;;4.33;62.89
70256;BME280;57669;52.624;-1.688;2023-01-29T09:44:41;102064.61;;;4.31;63.46
70256;BME280;57669;52.624;-1.688;2023-01-29T09:46:54;102057.30;;;4.36;62.60
70256;BME280;57669;52.624;-1.688;2023-01-29T09:49:23;102057.43;;;4.32;62.52
70256;BME280;57669;52.624;-1.688;2023-01-29T09:51:48;102056.05;;;4.29;63.16
70256;BME280;57669;52.624;-1.688;2023-01-29T09:54:16;102051.44;;;4.53;62.06
70256;BME280;57669;52.624;-1.688;2023-01-29T09:56:36;102054.32;;;4.10;62.56
70256;BME280;57669;52.624;-1.688;2023-01-29T09:59:01;102050.00;;;4.97;60.95
70256;BME280;57669;52.624;-1.688;2023-01-29T10:01:32;102047.05;;;5.53;59.65
70256;BME280;57669;52.624;-1.688;2023-01-29T10:04:06;102045.53;;;4.44;61.65
70256;BME280;57669;52.624;-1.688;2023-01-29T10:06:24;102044.32;;;4.40;62.02
70256;BME280;57669;52.624;-1.688;2023-01-29T10:11:22;102037.62;;;4.62;61.57
70256;BME280;57669;52.624;-1.688;2023-01-29T10:13:42;102035.51;;;4.60;61.17
70256;BME280;57669;52.624;-1.688;2023-01-29T10:16:12;102035.13;;;4.75;61.79
70256;BME280;57669;52.624;-1.688;2023-01-29T10:20:56;102030.89;;;5.06;61.32
70256;BME280;57669;52.624;-1.688;2023-01-29T10:23:21;102024.35;;;4.89;61.76
70256;BME280;57669;52.624;-1.688;2023-01-29T10:25:41;102023.33;;;4.56;61.46
70256;BME280;57669;52.624;-1.688;2023-01-29T10:28:14;102021.43;;;4.45;62.21
70256;BME280;57669;52.624;-1.688;2023-01-29T10:30:36;102017.89;;;4.95;60.48
70256;BME280;57669;52.624;-1.688;2023-01-29T10:33:00;102010.51;;;4.09;61.65
70256;BME280;57669;52.624;-1.688;2023-01-29T10:35:27;102019.14;;;4.92;59.82
70256;BME280;57669;52.624;-1.688;2023-01-29T10:37:51;102018.63;;;4.48;60.98
70256;BME280;57669;52.624;-1.688;2023-01-29T10:40:19;102020.37;;;4.31;61.11
70256;BME280;57669;52.624;-1.688;2023-01-29T10:42:43;102013.87;;;4.23;60.93
70256;BME280;57669;52.624;-1.688;2023-01-29T10:45:14;102015.35;;;4.57;59.81
70256;BME280;57669;52.624;-1.688;2023-01-29T10:47:43;102017.35;;;4.35;59.43
70256;BME280;57669;52.624;-1.688;2023-01-29T10:50:09;102009.07;;;4.37;59.13
70256;BME280;57669;52.624;-1.688;2023-01-29T10:52:31;102003.91;;;4.42;59.12
70256;BME280;57669;52.624;-1.688;2023-01-29T10:54:59;101998.26;;;4.14;58.80
70256;BME280;57669;52.624;-1.688;2023-01-29T10:57:18;102000.08;;;4.71;57.40
70256;BME280;57669;52.624;-1.688;2023-01-29T10:59:49;102007.20;;;4.94;57.39
70256;BME280;57669;52.624;-1.688;2023-01-29T11:02:11;101999.52;;;5.01;57.14
70256;BME280;57669;52.624;-1.688;2023-01-29T11:04:29;101998.21;;;4.65;56.87
70256;BME280;57669;52.624;-1.688;2023-01-29T11:06:53;101987.53;;;4.68;56.76
70256;BME280;57669;52.624;-1.688;2023-01-29T11:09:25;101984.21;;;4.61;56.72
70256;BME280;57669;52.624;-1.688;2023-01-29T11:11:49;101978.15;;;4.25;57.54
70256;BME280;57669;52.624;-1.688;2023-01-29T11:14:13;101970.22;;;4.38;56.84
70256;BME280;57669;52.624;-1.688;2023-01-29T11:16:40;101967.60;;;4.49;57.21
70256;BME280;57669;52.624;-1.688;2023-01-29T11:19:00;101961.16;;;4.74;56.43
70256;BME280;57669;52.624;-1.688;2023-01-29T11:21:26;101953.92;;;3.70;58.47
70256;BME280;57669;52.624;-1.688;2023-01-29T11:26:18;101939.85;;;4.78;56.48
70256;BME280;57669;52.624;-1.688;2023-01-29T11:28:43;101935.47;;;5.13;55.57
70256;BME280;57669;52.624;-1.688;2023-01-29T11:33:32;101931.24;;;4.42;56.36
70256;BME280;57669;52.624;-1.688;2023-01-29T11:35:57;101924.88;;;4.57;57.42
70256;BME280;57669;52.624;-1.688;2023-01-29T11:38:25;101913.76;;;4.71;56.63
70256;BME280;57669;52.624;-1.688;2023-01-29T11:40:48;101911.47;;;4.65;56.33
70256;BME280;57669;52.624;-1.688;2023-01-29T11:43:20;101898.13;;;5.16;55.44
70256;BME280;57669;52.624;-1.688;2023-01-29T11:45:39;101878.48;;;5.29;55.87
70256;BME280;57669;52.624;-1.688;2023-01-29T11:48:12;101877.36;;;4.62;56.55
70256;BME280;57669;52.624;-1.688;2023-01-29T11:50:32;101867.67;;;5.18;55.99
70256;BME280;57669;52.624;-1.688;2023-01-29T11:52:58;101864.41;;;5.18;56.17
70256;BME280;57669;52.624;-1.688;2023-01-29T11:55:23;101857.17;;;5.19;55.04
70256;BME280;57669;52.624;-1.688;2023-01-29T11:57:49;101850.86;;;5.25;56.04
70256;BME280;57669;52.624;-1.688;2023-01-29T12:00:19;101844.64;;;5.43;55.84
70256;BME280;57669;52.624;-1.688;2023-01-29T12:02:42;101845.43;;;4.79;56.13
70256;BME280;57669;52.624;-1.688;2023-01-29T12:05:13;101846.51;;;4.84;56.09
70256;BME280;57669;52.624;-1.688;2023-01-29T12:07:30;101846.37;;;4.83;56.49
70256;BME280;57669;52.624;-1.688;2023-01-29T12:09:56;101840.17;;;5.44;56.21
70256;BME280;57669;52.624;-1.688;2023-01-29T12:12:29;101841.60;;;5.80;54.90
70256;BME280;57669;52.624;-1.688;2023-01-29T12:14:44;101843.58;;;6.02;53.70
70256;BME280;57669;52.624;-1.688;2023-01-29T12:17:14;101839.98;;;6.35;52.54
70256;BME280;57669;52.624;-1.688;2023-01-29T12:19:40;101852.04;;;6.00;54.24
70256;BME280;57669;52.624;-1.688;2023-01-29T12:22:05;101837.42;;;5.33;54.96
70256;BME280;57669;52.624;-1.688;2023-01-29T12:24:32;101839.24;;;6.31;52.69
70256;BME280;57669;52.624;-1.688;2023-01-29T12:26:58;101839.20;;;6.13;53.79
70256;BME280;57669;52.624;-1.688;2023-01-29T12:29:26;101826.71;;;5.99;53.82
70256;BME280;57669;52.624;-1.688;2023-01-29T12:31:50;101834.88;;;6.17;53.93
70256;BME280;57669;52.624;-1.688;2023-01-29T12:34:16;101824.11;;;5.60;55.16
70256;BME280;57669;52.624;-1.688;2023-01-29T12:36:40;101823.52;;;5.70;55.00
70256;BME280;57669;52.624;-1.688;2023-01-29T12:39:03;101820.87;;;5.55;54.84
70256;BME280;57669;52.624;-1.688;2023-01-29T12:41:33;101816.68;;;6.51;52.59
70256;BME280;57669;52.624;-1.688;2023-01-29T12:43:57;101810.23;;;6.41;53.23
70256;BME280;57669;52.624;-1.688;2023-01-29T12:46:23;101809.06;;;7.09;51.00
70256;BME280;57669;52.624;-1.688;2023-01-29T12:48:47;101812.46;;;6.53;52.51
70256;BME280;57669;52.624;-1.688;2023-01-29T12:51:15;101807.22;;;6.33;52.28
70256;BME280;57669;52.624;-1.688;2023-01-29T12:53:42;101799.61;;;6.89;50.90
70256;BME280;57669;52.624;-1.688;2023-01-29T12:56:08;101790.12;;;6.91;50.16
70256;BME280;57669;52.624;-1.688;2023-01-29T12:58:33;101775.87;;;7.70;49.14